Data for 12/31/2014

Time Sea-Level Adjusted Pressure Absolute Pressure Temperature Relative Humidity Dew Point   
(mb) (inHg) (mb) (inHg) (C) (F) (%) (C) (F)
00:05 1030 30.42 860 25.4 -23.6 -10.5 75 -26.9 -16.4
00:10 1030 30.42 859 25.37 -23.5 -10.3 76 -26.6 -15.9
00:15 1030 30.42 859 25.37 -23.2 -9.7 75 -26.4 -15.5
00:20 1030 30.42 859 25.37 -22.8 -9 76 -26 -14.7
00:25 1030 30.42 859 25.37 -22.6 -8.6 74 -26 -14.8
00:30 1030 30.42 860 25.4 -22.7 -8.8 75 -26 -14.9
00:35 1030 30.42 859 25.37 -22.9 -9.1 76 -25.9 -14.7
00:40 1030 30.42 859 25.37 -22.7 -8.9 78 -25.6 -14.1
00:45 1030 30.42 859 25.37 -22.4 -8.4 77 -25.4 -13.7
00:50 1030 30.42 859 25.37 -22.5 -8.5 76 -25.6 -14.1
00:55 1030 30.42 859 25.37 -22.5 -8.5 77 -25.6 -14
01:00 1030 30.42 859 25.37 -22.4 -8.4 75 -25.7 -14.3
01:05 1030 30.42 859 25.37 -22.7 -8.9 76 -25.9 -14.6
01:10 1030 30.42 859 25.37 -22.7 -8.8 77 -25.6 -14.2
01:15 1030 30.42 859 25.37 -22.5 -8.6 75 -25.8 -14.5
01:20 1030 30.42 859 25.37 -22.5 -8.5 74 -26 -14.8
01:25 1030 30.42 859 25.37 -22.4 -8.3 74 -25.8 -14.5
01:30 1030 30.42 859 25.37 -22.3 -8.1 73 -25.9 -14.6
01:35 1030 30.42 859 25.37 -22.1 -7.7 73 -25.7 -14.3
01:40 1030 30.42 859 25.37 -21.9 -7.5 72 -25.7 -14.3
01:45 1030 30.42 859 25.37 -21.8 -7.2 71 -25.7 -14.3
01:50 1030 30.42 860 25.4 -21.7 -7.1 71 -25.7 -14.2
01:55 1030 30.42 859 25.37 -21.7 -7 73 -25.3 -13.6
02:00 1030 30.42 859 25.37 -21.5 -6.7 72 -25.3 -13.6
02:05 1030 30.42 859 25.37 -21.6 -6.8 73 -25.2 -13.3
02:10 1030 30.42 859 25.37 -21.6 -6.9 74 -25.1 -13.2
02:15 1030 30.42 859 25.37 -21.6 -6.8 73 -25.2 -13.3
02:20 1030 30.42 859 25.37 -21.4 -6.5 73 -25 -12.9
02:25 1030 30.42 859 25.37 -21.1 -6.1 71 -25.1 -13.2
02:30 1030 30.42 859 25.37 -21 -5.7 68 -25.4 -13.6
02:35 1030 30.42 859 25.37 -20.8 -5.4 68 -25.2 -13.4
02:40 1030 30.42 859 25.37 -20.7 -5.2 68 -25.2 -13.4
02:45 1030 30.42 859 25.37 -20.6 -5 69 -24.9 -12.7
02:50 1030 30.42 859 25.37 -20.4 -4.7 68 -24.8 -12.7
02:55 1030 30.42 859 25.37 -20.4 -4.7 67 -25 -12.9
03:00 1030 30.42 859 25.37 -20.4 -4.7 69 -24.7 -12.4
03:05 1030 30.42 859 25.37 -20.3 -4.6 68 -24.7 -12.5
03:10 1030 30.42 859 25.37 -20.3 -4.6 69 -24.6 -12.2
03:15 1030 30.42 859 25.37 -20.3 -4.6 70 -24.5 -12.1
03:20 1030 30.42 859 25.37 -20.3 -4.6 70 -24.4 -11.9
03:25 1030 30.42 859 25.37 -20.3 -4.6 71 -24.3 -11.8
03:30 1030 30.42 859 25.37 -20.3 -4.6 72 -24.2 -11.6
03:35 1030 30.42 859 25.37 -20.5 -4.9 71 -24.5 -12.1
03:40 1030 30.42 859 25.37 -20.7 -5.2 71 -24.6 -12.3
03:45 1030 30.42 859 25.37 -20.6 -5.1 71 -24.6 -12.2
03:50 1030 30.42 859 25.37 -20.5 -4.9 72 -24.3 -11.8
03:55 1030 30.42 859 25.37 -20.6 -5 72 -24.3 -11.8
04:00 1030 30.42 859 25.37 -20.7 -5.2 70 -24.8 -12.6
04:05 1030 30.42 859 25.37 -20.7 -5.2 71 -24.6 -12.3
04:10 1030 30.42 859 25.37 -20.6 -5.2 69 -24.9 -12.8
04:15 1030 30.42 859 25.37 -20.6 -5.1 67 -25.3 -13.5
04:20 1030 30.42 859 25.37 -20.5 -5 67 -25.2 -13.3
04:25 1030 30.42 859 25.37 -20.4 -4.8 68 -25 -12.9
04:30 1030 30.42 859 25.37 -20.4 -4.7 67 -25 -13
04:35 1030 30.42 859 25.37 -20.4 -4.8 69 -24.8 -12.6
04:40 1030 30.42 859 25.37 -20.4 -4.7 69 -24.7 -12.4
04:45 1030 30.42 859 25.37 -20.3 -4.6 70 -24.5 -12.1
04:50 1030 30.42 859 25.37 -20.4 -4.6 71 -24.3 -11.7
04:55 1030 30.42 859 25.37 -20.5 -4.9 73 -24.2 -11.6
05:00 1030 30.42 859 25.37 -20.6 -5 73 -24.3 -11.8
05:05 1030 30.42 859 25.37 -20.7 -5.2 70 -24.9 -12.7
05:10 1030 30.42 859 25.37 -20.6 -5.1 69 -24.9 -12.9
05:15 1030 30.42 859 25.37 -20.5 -4.9 68 -25 -13
05:20 1030 30.42 859 25.37 -20.4 -4.7 68 -24.8 -12.7
05:25 1030 30.42 859 25.37 -20.4 -4.8 68 -24.9 -12.8
05:30 1030 30.42 859 25.37 -20.6 -5.1 72 -24.5 -12.1
05:35 1030 30.42 859 25.37 -20.8 -5.4 74 -24.3 -11.7
05:40 1030 30.42 859 25.37 -21.1 -5.9 75 -24.4 -11.9
05:45 1030 30.42 859 25.37 -21.2 -6.1 75 -24.5 -12
05:50 1030 30.42 859 25.37 -21.2 -6.2 73 -24.9 -12.8
05:55 1030 30.42 859 25.37 -21.1 -6.1 70 -25.2 -13.4
06:00 1030 30.42 859 25.37 -21.1 -5.9 70 -25.2 -13.3
06:05 1030 30.42 859 25.37 -21 -5.9 71 -25 -13
06:10 1030 30.42 859 25.37 -21.2 -6.1 71 -25.1 -13.2
06:15 1030 30.42 859 25.37 -21.2 -6.2 71 -25.2 -13.3
06:20 1030 30.42 859 25.37 -21.2 -6.2 73 -24.9 -12.8
06:25 1030 30.42 859 25.37 -21.4 -6.4 75 -24.6 -12.3
06:30 1030 30.42 859 25.37 -21.4 -6.5 74 -24.8 -12.7
06:35 1029 30.39 859 25.37 -21.3 -6.4 74 -24.8 -12.6
06:40 1029 30.39 859 25.37 -21.4 -6.4 73 -25 -12.9
06:45 1029 30.39 859 25.37 -21.3 -6.3 73 -24.9 -12.7
06:50 1029 30.39 859 25.37 -21.3 -6.3 73 -24.8 -12.7
06:55 1029 30.39 859 25.37 -21.3 -6.4 73 -25 -13
07:00 1029 30.39 859 25.37 -21.3 -6.3 73 -25 -13
07:05 1029 30.39 858 25.34 -21.2 -6.2 73 -24.9 -12.9
07:10 1029 30.39 858 25.34 -21.1 -6 73 -24.8 -12.7
07:15 1029 30.39 858 25.34 -21 -5.9 73 -24.7 -12.4
07:20 1029 30.39 858 25.34 -20.9 -5.7 72 -24.7 -12.4
07:25 1029 30.39 858 25.34 -20.7 -5.3 71 -24.6 -12.4
07:30 1029 30.39 858 25.34 -20.5 -5 70 -24.6 -12.3
07:35 1029 30.39 858 25.34 -20.4 -4.7 71 -24.4 -11.9
07:40 1029 30.39 858 25.34 -20.3 -4.6 70 -24.6 -12.2
07:45 1029 30.39 858 25.34 -20.2 -4.4 70 -24.3 -11.8
07:50 1029 30.39 858 25.34 -20.1 -4.2 71 -24.1 -11.4
07:55 1029 30.39 858 25.34 -20.1 -4.1 70 -24.2 -11.6
08:00 1029 30.39 858 25.34 -19.9 -3.9 70 -24.1 -11.5
08:05 1029 30.39 858 25.34 -19.8 -3.6 67 -24.4 -11.9
08:10 1029 30.39 858 25.34 -19.8 -3.6 68 -24.2 -11.6
08:15 1029 30.39 858 25.34 -19.7 -3.5 69 -24 -11.2
08:20 1029 30.39 858 25.34 -19.6 -3.3 68 -24 -11.2
08:25 1029 30.39 858 25.34 -19.5 -3 69 -23.8 -10.8
08:30 1029 30.39 858 25.34 -19.4 -2.9 70 -23.6 -10.6
08:35 1029 30.39 858 25.34 -19.4 -2.8 69 -23.6 -10.5
08:40 1029 30.39 858 25.34 -19.3 -2.8 69 -23.6 -10.6
08:45 1029 30.39 858 25.34 -19.3 -2.7 69 -23.6 -10.6
08:50 1029 30.39 858 25.34 -19.2 -2.6 69 -23.6 -10.5
08:55 1029 30.39 858 25.34 -19.2 -2.6 70 -23.3 -10
09:00 1029 30.39 858 25.34 -19.3 -2.7 70 -23.5 -10.3
09:05 1029 30.39 858 25.34 -19.4 -3 73 -23.1 -9.5
09:10 1029 30.39 858 25.34 -19.4 -2.9 69 -23.7 -10.7
09:15 1029 30.39 858 25.34 -19.4 -2.8 70 -23.6 -10.4
09:20 1029 30.39 858 25.34 -19.2 -2.5 68 -23.6 -10.6
09:25 1029 30.39 858 25.34 -19 -2.3 68 -23.6 -10.4
09:30 1029 30.39 858 25.34 -19.1 -2.3 68 -23.6 -10.5
09:35 1029 30.39 858 25.34 -19.1 -2.4 69 -23.5 -10.3
09:40 1029 30.39 858 25.34 -18.9 -2.1 65 -23.9 -11
09:45 1029 30.39 858 25.34 -18.4 -1.1 65 -23.4 -10.1
09:50 1029 30.39 858 25.34 -18 -0.4 67 -22.8 -9.1
09:55 1029 30.39 858 25.34 -17.8 -0.1 67 -22.6 -8.7
10:00 1029 30.39 858 25.34 -17.9 -0.1 66 -22.7 -8.8
10:05 1029 30.39 858 25.34 -17.9 -0.2 65 -22.9 -9.2
10:10 1029 30.39 858 25.34 -17.8 -0.1 66 -22.7 -8.8
10:15 1029 30.39 858 25.34 -17.7 0.1 67 -22.4 -8.4
10:20 1029 30.39 858 25.34 -17.5 0.5 65 -22.7 -8.8
10:25 1029 30.39 858 25.34 -17.4 0.7 66 -22.3 -8.1
10:30 1029 30.39 858 25.34 -16.9 1.5 66 -21.9 -7.5
10:35 1029 30.39 858 25.34 -16.9 1.6 64 -22.1 -7.8
10:40 1029 30.39 858 25.34 -16.9 1.6 64 -22.2 -8
10:45 1029 30.39 858 25.34 -16.6 2.1 63 -22.1 -7.7
10:50 1029 30.39 858 25.34 -16.5 2.4 64 -21.9 -7.3
10:55 1029 30.39 858 25.34 -16.8 1.9 64 -22.1 -7.8
11:00 1029 30.39 858 25.34 -17 1.4 63 -22.5 -8.6
11:05 1029 30.39 858 25.34 -17.1 1.2 65 -22.2 -8
11:10 1029 30.39 858 25.34 -16.7 2 63 -22.2 -8
11:15 1029 30.39 858 25.34 -16.6 2.1 62 -22.4 -8.2
11:20 1029 30.39 858 25.34 -16.4 2.5 61 -22.3 -8.2
11:25 1029 30.39 858 25.34 -16 3.3 59 -22.2 -7.9
11:30 1029 30.39 858 25.34 -16 3.3 62 -21.7 -7.1
11:35 1029 30.39 858 25.34 -16 3.3 60 -22 -7.5
11:40 1029 30.39 858 25.34 -15.8 3.6 63 -21.4 -6.5
11:45 1029 30.39 858 25.34 -15.6 3.9 62 -21.4 -6.5
11:50 1029 30.39 858 25.34 -15.4 4.2 62 -21.1 -6
11:55 1029 30.39 858 25.34 -15.4 4.4 61 -21.2 -6.2
12:00 1029 30.39 858 25.34 -15.2 4.7 61 -21.1 -6
12:05 1029 30.39 858 25.34 -15.3 4.5 62 -21.1 -5.9
12:10 1028 30.36 858 25.34 -15.4 4.3 61 -21.3 -6.3
12:15 1028 30.36 858 25.34 -15.1 4.8 62 -20.8 -5.5
12:20 1028 30.36 858 25.34 -15 5.1 60 -21 -5.9
12:25 1028 30.36 858 25.34 -15.7 3.8 64 -21.1 -5.9
12:30 1028 30.36 858 25.34 -15.4 4.4 63 -20.9 -5.7
12:35 1028 30.36 857 25.31 -15 5.1 61 -20.9 -5.6
12:40 1028 30.36 857 25.31 -14.7 5.5 61 -20.6 -5.1
12:45 1028 30.36 858 25.34 -14.8 5.4 61 -20.7 -5.2
12:50 1028 30.36 857 25.31 -14.8 5.3 61 -20.8 -5.5
12:55 1028 30.36 857 25.31 -14.9 5.1 62 -20.7 -5.3
13:00 1028 30.36 857 25.31 -15 5 62 -20.7 -5.2
13:05 1028 30.36 857 25.31 -15.4 4.3 64 -20.7 -5.2
13:10 1028 30.36 857 25.31 -15.7 3.7 65 -20.9 -5.5
13:15 1028 30.36 857 25.31 -15.4 4.3 64 -20.8 -5.4
13:20 1028 30.36 857 25.31 -14.8 5.3 61 -20.8 -5.5
13:25 1028 30.36 857 25.31 -14.7 5.5 62 -20.5 -4.9
13:30 1028 30.36 857 25.31 -14.7 5.5 62 -20.4 -4.7
13:35 1027 30.33 857 25.31 -14.3 6.2 60 -20.5 -4.9
13:40 1027 30.33 857 25.31 -14.3 6.2 61 -20.3 -4.5
13:45 1027 30.33 857 25.31 -14.1 6.7 59 -20.4 -4.6
13:50 1027 30.33 857 25.31 -14 6.9 58 -20.6 -5.1
13:55 1027 30.33 856 25.28 -14.5 5.9 59 -20.7 -5.3
14:00 1027 30.33 856 25.28 -14.6 5.8 59 -20.8 -5.5
14:05 1027 30.33 856 25.28 -14.6 5.7 59 -21 -5.7
14:10 1027 30.33 856 25.28 -14.4 6 57 -21.1 -6
14:15 1027 30.33 856 25.28 -13.8 7.1 56 -20.9 -5.7
14:20 1027 30.33 856 25.28 -12.9 8.7 52 -20.9 -5.6
14:25 1027 30.33 856 25.28 -12.2 10 51 -20.4 -4.7
14:30 1027 30.33 856 25.28 -11.4 11.6 51 -19.7 -3.5
14:35 1026 30.3 856 25.28 -11.3 11.6 51 -19.6 -3.3
14:40 1026 30.3 855 25.25 -11.7 10.9 51 -20 -4.1
14:45 1026 30.3 855 25.25 -11.5 11.2 51 -19.7 -3.4
14:50 1026 30.3 855 25.25 -11.4 11.4 48 -20.3 -4.5
14:55 1026 30.3 855 25.25 -11.5 11.4 52 -19.4 -3
15:00 1026 30.3 855 25.25 -10.8 12.5 47 -20.1 -4.2
15:05 1026 30.3 855 25.25 -10.8 12.5 48 -19.9 -3.8
15:10 1026 30.3 855 25.25 -10.9 12.3 49 -19.8 -3.6
15:15 1026 30.3 855 25.25 -10.8 12.5 46 -20.4 -4.7
15:20 1026 30.3 855 25.25 -11.8 10.7 49 -20.6 -5
15:25 1026 30.3 855 25.25 -12.3 9.9 52 -20.2 -4.3
15:30 1026 30.3 855 25.25 -12.2 10 52 -20.3 -4.5
15:35 1026 30.3 855 25.25 -11.7 11 50 -20.2 -4.4
15:40 1025 30.27 855 25.25 -11.3 11.6 52 -19.3 -2.8
15:45 1025 30.27 855 25.25 -12.3 9.8 55 -19.7 -3.5
15:50 1026 30.3 855 25.25 -12.1 10.2 54 -19.7 -3.5
15:55 1026 30.3 855 25.25 -11.4 11.5 51 -19.7 -3.4
16:00 1025 30.27 855 25.25 -11.1 12.1 50 -19.6 -3.2
16:05 1025 30.27 855 25.25 -10.9 12.4 49 -19.7 -3.4
16:10 1025 30.27 855 25.25 -10.8 12.5 48 -19.8 -3.6
16:15 1025 30.27 855 25.25 -10.8 12.5 48 -19.8 -3.6
16:20 1025 30.27 855 25.25 -10.9 12.3 48 -19.9 -3.9
16:25 1025 30.27 855 25.25 -11.2 11.8 48 -20.2 -4.3
16:30 1025 30.27 855 25.25 -11.4 11.5 47 -20.5 -4.9
16:35 1026 30.3 855 25.25 -11.5 11.3 48 -20.6 -5
16:40 1026 30.3 855 25.25 -11.7 11 48 -20.7 -5.3
16:45 1026 30.3 855 25.25 -11.9 10.6 48 -20.8 -5.4
16:50 1026 30.3 855 25.25 -12.4 9.7 49 -21.1 -6.1
16:55 1026 30.3 855 25.25 -12.5 9.6 49 -21.2 -6.1
17:00 1026 30.3 855 25.25 -12.8 9 51 -20.9 -5.6
17:05 1026 30.3 855 25.25 -13.5 7.7 52 -21.3 -6.4
17:10 1026 30.3 855 25.25 -13.6 7.6 53 -21.2 -6.1
17:15 1026 30.3 855 25.25 -14.3 6.2 56 -21.4 -6.5
17:20 1026 30.3 855 25.25 -14.2 6.4 56 -21.3 -6.3
17:25 1026 30.3 855 25.25 -14.4 6.1 57 -21.1 -6
17:30 1026 30.3 855 25.25 -14.5 5.9 57 -21.3 -6.3
17:35 1026 30.3 855 25.25 -15 5 60 -21.2 -6.1
17:40 1026 30.3 855 25.25 -15.2 4.7 61 -21.1 -6
17:45 1025 30.27 855 25.25 -15.2 4.7 61 -21.1 -6
17:50 1025 30.27 855 25.25 -15.5 4.2 62 -21.1 -6.1
17:55 1025 30.27 855 25.25 -15.6 4 62 -21.3 -6.3
18:00 1025 30.27 855 25.25 -15.6 3.9 63 -21.2 -6.1
18:05 1025 30.27 855 25.25 -15.5 4.1 64 -20.8 -5.5
18:10 1025 30.27 854 25.22 -15.6 3.9 66 -20.7 -5.2
18:15 1025 30.27 854 25.22 -15.8 3.5 66 -20.7 -5.3
18:20 1025 30.27 855 25.25 -16 3.2 68 -20.7 -5.2
18:25 1025 30.27 855 25.25 -16.2 2.9 67 -21 -5.7
18:30 1025 30.27 855 25.25 -16.2 2.9 66 -21.2 -6.2
18:35 1025 30.27 854 25.22 -16.1 2.9 65 -21.2 -6.2
18:40 1025 30.27 854 25.22 -16 3.3 66 -21 -5.8
18:45 1025 30.27 854 25.22 -16 3.2 66 -20.9 -5.6
18:50 1025 30.27 854 25.22 -16.2 2.8 68 -20.9 -5.6
18:55 1025 30.27 854 25.22 -16.5 2.4 69 -21 -5.8
19:00 1025 30.27 854 25.22 -16.6 2.1 68 -21.2 -6.1
19:05 1025 30.27 854 25.22 -16.5 2.3 67 -21.4 -6.4
19:10 1025 30.27 854 25.22 -16.3 2.6 66 -21.3 -6.4
19:15 1025 30.27 854 25.22 -16.2 2.9 66 -21.2 -6.2
19:20 1025 30.27 854 25.22 -15.9 3.3 65 -21.1 -5.9
19:25 1025 30.27 854 25.22 -16 3.3 65 -21.1 -5.9
19:30 1025 30.27 854 25.22 -16.2 2.8 67 -21 -5.8
19:35 1025 30.27 854 25.22 -16.6 2.1 69 -21 -5.8
19:40 1025 30.27 854 25.22 -16.8 1.8 71 -21 -5.7
19:45 1025 30.27 854 25.22 -16.8 1.7 71 -21 -5.8
19:50 1025 30.27 854 25.22 -16.7 1.9 71 -20.9 -5.6
19:55 1025 30.27 854 25.22 -16.7 1.9 71 -20.8 -5.5
20:00 1025 30.27 854 25.22 -16.5 2.2 70 -20.8 -5.4
20:05 1025 30.27 854 25.22 -16.6 2.1 71 -20.7 -5.3
20:10 1025 30.27 854 25.22 -16.8 1.9 71 -20.8 -5.5
20:15 1025 30.27 854 25.22 -16.9 1.7 72 -20.7 -5.3
20:20 1025 30.27 854 25.22 -17 1.5 73 -20.7 -5.3
20:25 1025 30.27 854 25.22 -17 1.4 73 -20.7 -5.3
20:30 1024 30.24 854 25.22 -17 1.5 73 -20.8 -5.4
20:35 1024 30.24 854 25.22 -16.8 1.7 72 -20.7 -5.3
20:40 1024 30.24 854 25.22 -16.7 1.9 72 -20.7 -5.2
20:45 1024 30.24 854 25.22 -17 1.4 73 -20.7 -5.3
20:50 1024 30.24 854 25.22 -16.9 1.5 73 -20.7 -5.3
20:55 1024 30.24 854 25.22 -16.5 2.3 71 -20.5 -5
21:00 1024 30.24 853 25.19 -16.4 2.5 71 -20.4 -4.8
21:05 1024 30.24 853 25.19 -16.4 2.5 72 -20.4 -4.7
21:10 1024 30.24 853 25.19 -16.2 2.8 72 -20.3 -4.5
21:15 1024 30.24 853 25.19 -16.4 2.4 72 -20.4 -4.6
21:20 1024 30.24 853 25.19 -16.7 1.9 73 -20.4 -4.7
21:25 1024 30.24 853 25.19 -16.6 2.2 75 -20 -3.9
21:30 1024 30.24 853 25.19 -16.6 2.2 74 -20.2 -4.4
21:35 1024 30.24 853 25.19 -16.6 2.1 73 -20.3 -4.6
21:40 1024 30.24 853 25.19 -16.8 1.7 74 -20.4 -4.7
21:45 1024 30.24 853 25.19 -16.9 1.6 74 -20.5 -4.9
21:50 1024 30.24 853 25.19 -16.9 1.6 75 -20.4 -4.7
21:55 1024 30.24 853 25.19 -16.9 1.7 73 -20.6 -5
22:00 1023 30.21 853 25.19 -17 1.5 74 -20.5 -5
22:05 1023 30.21 853 25.19 -17.1 1.3 74 -20.6 -5.1
22:10 1023 30.21 853 25.19 -17.1 1.3 75 -20.5 -4.8
22:15 1023 30.21 853 25.19 -16.9 1.6 74 -20.4 -4.7
22:20 1023 30.21 852 25.16 -16.8 1.7 75 -20.3 -4.5
22:25 1023 30.21 852 25.16 -16.9 1.6 76 -20.2 -4.4
22:30 1023 30.21 852 25.16 -16.8 1.9 75 -20.2 -4.3
22:35 1023 30.21 852 25.16 -16.7 1.9 75 -20.1 -4.2
22:40 1023 30.21 852 25.16 -16.7 1.9 75 -20.2 -4.4
22:45 1023 30.21 852 25.16 -16.5 2.2 74 -20.1 -4.2
22:50 1023 30.21 852 25.16 -16.5 2.3 74 -20.1 -4.1
22:55 1023 30.21 852 25.16 -16.4 2.6 73 -20.1 -4.2
23:00 1023 30.21 852 25.16 -16.4 2.4 74 -20.1 -4.2
23:05 1023 30.21 852 25.16 -16.7 1.9 73 -20.4 -4.7
23:10 1023 30.21 852 25.16 -17.2 1 76 -20.6 -5
23:15 1023 30.21 852 25.16 -17.8 -0.1 80 -20.4 -4.8
23:20 1023 30.21 852 25.16 -17.9 -0.3 79 -20.8 -5.4
23:25 1023 30.21 852 25.16 -18.3 -1 80 -20.9 -5.7
23:30 1023 30.21 852 25.16 -18.1 -0.5 79 -20.8 -5.5
23:35 1023 30.21 852 25.16 -17.2 1.1 76 -20.4 -4.8
23:40 1023 30.21 852 25.16 -16.5 2.2 74 -20.1 -4.1
23:45 1022 30.18 852 25.16 -16.5 2.2 73 -20.4 -4.7
23:50 1022 30.18 852 25.16 -16.8 1.8 74 -20.4 -4.8
23:55 1023 30.21 852 25.16 -17.1 1.2 74 -20.7 -5.3
24:00 1022 30.18 852 25.16 -17.6 0.4 76 -20.8 -5.4